sensor_id;sensor_type;location;lat;lon;timestamp;temperature;humidity
62573;DHT22;48626;51.678;5.806;2023-12-20T00:01:18;7.90;99.90
62573;DHT22;48626;51.678;5.806;2023-12-20T00:03:44;7.90;99.90
62573;DHT22;48626;51.678;5.806;2023-12-20T00:06:09;7.70;99.90
62573;DHT22;48626;51.678;5.806;2023-12-20T00:08:35;7.60;99.90
62573;DHT22;48626;51.678;5.806;2023-12-20T00:11:00;7.60;99.90
62573;DHT22;48626;51.678;5.806;2023-12-20T00:13:26;7.50;99.90
62573;DHT22;48626;51.678;5.806;2023-12-20T00:15:51;7.40;99.90
62573;DHT22;48626;51.678;5.806;2023-12-20T00:18:17;7.30;99.90
62573;DHT22;48626;51.678;5.806;2023-12-20T00:20:42;7.20;99.90
62573;DHT22;48626;51.678;5.806;2023-12-20T00:23:08;7.20;99.90
62573;DHT22;48626;51.678;5.806;2023-12-20T00:25:34;7.10;99.90
62573;DHT22;48626;51.678;5.806;2023-12-20T00:28:00;7.10;99.90
62573;DHT22;48626;51.678;5.806;2023-12-20T00:30:26;7.00;99.90
62573;DHT22;48626;51.678;5.806;2023-12-20T00:32:51;7.10;99.90
62573;DHT22;48626;51.678;5.806;2023-12-20T00:35:17;7.10;99.90
62573;DHT22;48626;51.678;5.806;2023-12-20T00:37:42;7.10;99.90
62573;DHT22;48626;51.678;5.806;2023-12-20T00:40:08;7.20;99.90
62573;DHT22;48626;51.678;5.806;2023-12-20T00:42:34;7.30;99.90
62573;DHT22;48626;51.678;5.806;2023-12-20T00:45:00;7.30;99.90
62573;DHT22;48626;51.678;5.806;2023-12-20T00:47:25;7.30;99.90
62573;DHT22;48626;51.678;5.806;2023-12-20T00:49:51;7.30;99.90
62573;DHT22;48626;51.678;5.806;2023-12-20T00:52:17;7.20;99.90
62573;DHT22;48626;51.678;5.806;2023-12-20T00:54:43;7.10;99.90
62573;DHT22;48626;51.678;5.806;2023-12-20T00:57:08;7.00;99.90
62573;DHT22;48626;51.678;5.806;2023-12-20T00:59:34;7.00;99.90
62573;DHT22;48626;51.678;5.806;2023-12-20T01:01:59;7.00;99.90
62573;DHT22;48626;51.678;5.806;2023-12-20T01:04:25;6.90;99.90
62573;DHT22;48626;51.678;5.806;2023-12-20T01:06:51;6.80;99.90
62573;DHT22;48626;51.678;5.806;2023-12-20T01:09:17;6.80;99.90
62573;DHT22;48626;51.678;5.806;2023-12-20T01:11:43;6.80;99.90
62573;DHT22;48626;51.678;5.806;2023-12-20T01:14:09;6.70;99.90
62573;DHT22;48626;51.678;5.806;2023-12-20T01:16:34;6.70;99.90
62573;DHT22;48626;51.678;5.806;2023-12-20T01:19:00;6.60;99.90
62573;DHT22;48626;51.678;5.806;2023-12-20T01:21:25;6.60;99.90
62573;DHT22;48626;51.678;5.806;2023-12-20T01:23:51;6.70;99.90
62573;DHT22;48626;51.678;5.806;2023-12-20T01:26:16;6.70;99.90
62573;DHT22;48626;51.678;5.806;2023-12-20T01:28:42;6.80;99.90
62573;DHT22;48626;51.678;5.806;2023-12-20T01:31:08;6.70;99.90
62573;DHT22;48626;51.678;5.806;2023-12-20T01:33:34;6.80;99.90
62573;DHT22;48626;51.678;5.806;2023-12-20T01:35:59;6.90;99.90
62573;DHT22;48626;51.678;5.806;2023-12-20T01:38:25;6.90;99.90
62573;DHT22;48626;51.678;5.806;2023-12-20T01:40:50;7.00;99.90
62573;DHT22;48626;51.678;5.806;2023-12-20T01:43:16;7.00;99.90
62573;DHT22;48626;51.678;5.806;2023-12-20T01:45:41;7.00;99.90
62573;DHT22;48626;51.678;5.806;2023-12-20T01:48:07;7.10;99.90
62573;DHT22;48626;51.678;5.806;2023-12-20T01:50:33;7.00;99.90
62573;DHT22;48626;51.678;5.806;2023-12-20T01:53:01;7.00;99.90
62573;DHT22;48626;51.678;5.806;2023-12-20T01:55:27;7.00;99.90
62573;DHT22;48626;51.678;5.806;2023-12-20T01:57:55;6.90;99.90
62573;DHT22;48626;51.678;5.806;2023-12-20T02:00:21;6.90;99.90
62573;DHT22;48626;51.678;5.806;2023-12-20T02:02:48;6.90;99.90
62573;DHT22;48626;51.678;5.806;2023-12-20T02:05:15;6.80;99.90
62573;DHT22;48626;51.678;5.806;2023-12-20T02:07:41;6.70;99.90
62573;DHT22;48626;51.678;5.806;2023-12-20T02:10:07;6.70;99.90
62573;DHT22;48626;51.678;5.806;2023-12-20T02:12:33;6.60;99.90
62573;DHT22;48626;51.678;5.806;2023-12-20T02:14:58;6.50;99.90
62573;DHT22;48626;51.678;5.806;2023-12-20T02:17:24;6.50;99.90
62573;DHT22;48626;51.678;5.806;2023-12-20T02:19:50;6.60;99.90
62573;DHT22;48626;51.678;5.806;2023-12-20T02:22:16;6.60;99.90
62573;DHT22;48626;51.678;5.806;2023-12-20T02:24:41;6.50;99.90
62573;DHT22;48626;51.678;5.806;2023-12-20T02:27:07;6.50;99.90
62573;DHT22;48626;51.678;5.806;2023-12-20T02:29:33;6.40;99.90
62573;DHT22;48626;51.678;5.806;2023-12-20T02:31:59;6.40;99.90
62573;DHT22;48626;51.678;5.806;2023-12-20T02:34:24;6.30;99.90
62573;DHT22;48626;51.678;5.806;2023-12-20T02:36:50;6.30;99.90
62573;DHT22;48626;51.678;5.806;2023-12-20T02:39:16;6.30;99.90
62573;DHT22;48626;51.678;5.806;2023-12-20T02:41:42;6.30;99.90
62573;DHT22;48626;51.678;5.806;2023-12-20T02:44:07;6.30;99.90
62573;DHT22;48626;51.678;5.806;2023-12-20T02:46:33;6.40;99.90
62573;DHT22;48626;51.678;5.806;2023-12-20T02:48:58;6.40;99.90
62573;DHT22;48626;51.678;5.806;2023-12-20T02:51:24;6.40;99.90
62573;DHT22;48626;51.678;5.806;2023-12-20T02:53:49;6.40;99.90
62573;DHT22;48626;51.678;5.806;2023-12-20T02:56:15;6.30;99.90
62573;DHT22;48626;51.678;5.806;2023-12-20T02:58:40;6.30;99.90
62573;DHT22;48626;51.678;5.806;2023-12-20T03:01:06;6.20;99.90
62573;DHT22;48626;51.678;5.806;2023-12-20T03:03:31;6.20;99.90
62573;DHT22;48626;51.678;5.806;2023-12-20T03:05:57;6.20;99.90
62573;DHT22;48626;51.678;5.806;2023-12-20T03:08:22;6.20;99.90
62573;DHT22;48626;51.678;5.806;2023-12-20T03:10:48;6.20;99.90
62573;DHT22;48626;51.678;5.806;2023-12-20T03:13:13;6.30;99.90
62573;DHT22;48626;51.678;5.806;2023-12-20T03:15:39;6.30;99.90
62573;DHT22;48626;51.678;5.806;2023-12-20T03:18:05;6.40;99.90
62573;DHT22;48626;51.678;5.806;2023-12-20T03:20:30;6.40;99.90
62573;DHT22;48626;51.678;5.806;2023-12-20T03:22:59;6.40;99.90
62573;DHT22;48626;51.678;5.806;2023-12-20T03:25:25;6.40;99.90
62573;DHT22;48626;51.678;5.806;2023-12-20T03:27:50;6.40;99.90
62573;DHT22;48626;51.678;5.806;2023-12-20T03:30:16;6.30;99.90
62573;DHT22;48626;51.678;5.806;2023-12-20T03:32:41;6.30;99.90
62573;DHT22;48626;51.678;5.806;2023-12-20T03:35:07;6.30;99.90
62573;DHT22;48626;51.678;5.806;2023-12-20T03:37:32;6.30;99.90
62573;DHT22;48626;51.678;5.806;2023-12-20T03:39:58;6.20;99.90
62573;DHT22;48626;51.678;5.806;2023-12-20T03:42:24;6.20;99.90
62573;DHT22;48626;51.678;5.806;2023-12-20T03:44:49;6.20;99.90
62573;DHT22;48626;51.678;5.806;2023-12-20T03:47:15;6.20;99.90
62573;DHT22;48626;51.678;5.806;2023-12-20T03:49:40;6.10;99.90
62573;DHT22;48626;51.678;5.806;2023-12-20T03:52:06;6.10;99.90
62573;DHT22;48626;51.678;5.806;2023-12-20T03:54:31;6.00;99.90
62573;DHT22;48626;51.678;5.806;2023-12-20T03:56:57;6.00;99.90
62573;DHT22;48626;51.678;5.806;2023-12-20T03:59:22;6.00;99.90
62573;DHT22;48626;51.678;5.806;2023-12-20T04:01:47;6.00;99.90
62573;DHT22;48626;51.678;5.806;2023-12-20T04:04:13;6.00;99.90
62573;DHT22;48626;51.678;5.806;2023-12-20T04:06:39;6.10;99.90
62573;DHT22;48626;51.678;5.806;2023-12-20T04:09:05;6.20;99.90
62573;DHT22;48626;51.678;5.806;2023-12-20T04:11:30;6.20;99.90
62573;DHT22;48626;51.678;5.806;2023-12-20T04:13:56;6.30;99.90
62573;DHT22;48626;51.678;5.806;2023-12-20T04:16:21;6.30;99.90
62573;DHT22;48626;51.678;5.806;2023-12-20T04:18:47;6.30;99.90
62573;DHT22;48626;51.678;5.806;2023-12-20T04:21:12;6.30;99.90
62573;DHT22;48626;51.678;5.806;2023-12-20T04:23:38;6.40;99.90
62573;DHT22;48626;51.678;5.806;2023-12-20T04:26:04;6.40;99.90
62573;DHT22;48626;51.678;5.806;2023-12-20T04:28:29;6.50;99.90
62573;DHT22;48626;51.678;5.806;2023-12-20T04:30:57;6.50;99.90
62573;DHT22;48626;51.678;5.806;2023-12-20T04:33:23;6.50;99.90
62573;DHT22;48626;51.678;5.806;2023-12-20T04:35:48;6.50;99.90
62573;DHT22;48626;51.678;5.806;2023-12-20T04:38:14;6.60;99.90
62573;DHT22;48626;51.678;5.806;2023-12-20T04:40:40;6.70;99.90
62573;DHT22;48626;51.678;5.806;2023-12-20T04:43:06;6.70;99.90
62573;DHT22;48626;51.678;5.806;2023-12-20T04:45:32;6.70;99.90
62573;DHT22;48626;51.678;5.806;2023-12-20T04:47:59;6.80;99.90
62573;DHT22;48626;51.678;5.806;2023-12-20T04:50:25;6.80;99.90
62573;DHT22;48626;51.678;5.806;2023-12-20T04:52:51;6.80;99.90
62573;DHT22;48626;51.678;5.806;2023-12-20T04:55:17;6.90;99.90
62573;DHT22;48626;51.678;5.806;2023-12-20T04:57:42;6.90;99.90
62573;DHT22;48626;51.678;5.806;2023-12-20T05:00:08;6.80;99.90
62573;DHT22;48626;51.678;5.806;2023-12-20T05:02:35;6.70;99.90
62573;DHT22;48626;51.678;5.806;2023-12-20T05:05:00;6.70;99.90
62573;DHT22;48626;51.678;5.806;2023-12-20T05:07:26;6.60;99.90
62573;DHT22;48626;51.678;5.806;2023-12-20T05:09:51;6.70;99.90
62573;DHT22;48626;51.678;5.806;2023-12-20T05:12:17;6.70;99.90
62573;DHT22;48626;51.678;5.806;2023-12-20T05:14:42;6.80;99.90
62573;DHT22;48626;51.678;5.806;2023-12-20T05:17:08;6.80;99.90
62573;DHT22;48626;51.678;5.806;2023-12-20T05:19:33;6.80;99.90
62573;DHT22;48626;51.678;5.806;2023-12-20T05:22:02;6.80;99.90
62573;DHT22;48626;51.678;5.806;2023-12-20T05:24:28;6.80;99.90
62573;DHT22;48626;51.678;5.806;2023-12-20T05:26:53;6.90;99.90
62573;DHT22;48626;51.678;5.806;2023-12-20T05:29:19;6.90;99.90
62573;DHT22;48626;51.678;5.806;2023-12-20T05:31:45;6.90;99.90
62573;DHT22;48626;51.678;5.806;2023-12-20T05:34:10;7.00;99.90
62573;DHT22;48626;51.678;5.806;2023-12-20T05:36:36;7.00;99.90
62573;DHT22;48626;51.678;5.806;2023-12-20T05:39:01;7.00;99.90
62573;DHT22;48626;51.678;5.806;2023-12-20T05:41:29;7.00;99.90
62573;DHT22;48626;51.678;5.806;2023-12-20T05:43:54;7.10;99.90
62573;DHT22;48626;51.678;5.806;2023-12-20T05:46:19;7.10;99.90
62573;DHT22;48626;51.678;5.806;2023-12-20T05:48:46;7.10;99.90
62573;DHT22;48626;51.678;5.806;2023-12-20T05:51:12;7.10;99.90
62573;DHT22;48626;51.678;5.806;2023-12-20T05:53:38;7.10;99.90
62573;DHT22;48626;51.678;5.806;2023-12-20T05:56:03;7.20;99.90
62573;DHT22;48626;51.678;5.806;2023-12-20T05:58:29;7.20;99.90
62573;DHT22;48626;51.678;5.806;2023-12-20T06:00:55;7.20;99.90
62573;DHT22;48626;51.678;5.806;2023-12-20T06:03:20;7.20;99.90
62573;DHT22;48626;51.678;5.806;2023-12-20T06:05:45;7.20;99.90
62573;DHT22;48626;51.678;5.806;2023-12-20T06:08:11;7.30;99.90
62573;DHT22;48626;51.678;5.806;2023-12-20T06:10:37;7.20;99.90
62573;DHT22;48626;51.678;5.806;2023-12-20T06:13:02;7.30;99.90
62573;DHT22;48626;51.678;5.806;2023-12-20T06:15:29;7.30;99.90
62573;DHT22;48626;51.678;5.806;2023-12-20T06:17:55;7.30;99.90
62573;DHT22;48626;51.678;5.806;2023-12-20T06:20:20;7.30;99.90
62573;DHT22;48626;51.678;5.806;2023-12-20T06:22:46;7.30;99.90
62573;DHT22;48626;51.678;5.806;2023-12-20T06:25:12;7.30;99.90
62573;DHT22;48626;51.678;5.806;2023-12-20T06:27:37;7.30;99.90
62573;DHT22;48626;51.678;5.806;2023-12-20T06:30:03;7.30;99.90
62573;DHT22;48626;51.678;5.806;2023-12-20T06:32:28;7.30;99.90
62573;DHT22;48626;51.678;5.806;2023-12-20T06:34:54;7.30;99.90
62573;DHT22;48626;51.678;5.806;2023-12-20T06:37:20;7.30;99.90
62573;DHT22;48626;51.678;5.806;2023-12-20T06:39:45;7.40;99.90
62573;DHT22;48626;51.678;5.806;2023-12-20T06:42:12;7.30;99.90
62573;DHT22;48626;51.678;5.806;2023-12-20T06:44:38;7.30;99.90
62573;DHT22;48626;51.678;5.806;2023-12-20T06:47:04;7.30;99.90
62573;DHT22;48626;51.678;5.806;2023-12-20T06:49:29;7.30;99.90
62573;DHT22;48626;51.678;5.806;2023-12-20T06:51:55;7.30;99.90
62573;DHT22;48626;51.678;5.806;2023-12-20T06:54:20;7.30;99.90
62573;DHT22;48626;51.678;5.806;2023-12-20T06:56:46;7.30;99.90
62573;DHT22;48626;51.678;5.806;2023-12-20T06:59:12;7.30;99.90
62573;DHT22;48626;51.678;5.806;2023-12-20T07:01:37;7.20;99.90
62573;DHT22;48626;51.678;5.806;2023-12-20T07:04:03;7.30;99.90
62573;DHT22;48626;51.678;5.806;2023-12-20T07:06:28;7.20;99.90
62573;DHT22;48626;51.678;5.806;2023-12-20T07:08:54;7.20;99.90
62573;DHT22;48626;51.678;5.806;2023-12-20T07:11:19;7.20;99.90
62573;DHT22;48626;51.678;5.806;2023-12-20T07:13:45;7.20;99.90
62573;DHT22;48626;51.678;5.806;2023-12-20T07:16:10;7.20;99.90
62573;DHT22;48626;51.678;5.806;2023-12-20T07:18:36;7.20;99.90
62573;DHT22;48626;51.678;5.806;2023-12-20T07:21:01;7.10;99.90
62573;DHT22;48626;51.678;5.806;2023-12-20T07:23:27;7.10;99.90
62573;DHT22;48626;51.678;5.806;2023-12-20T07:25:52;7.10;99.90
62573;DHT22;48626;51.678;5.806;2023-12-20T07:28:18;7.10;99.90
62573;DHT22;48626;51.678;5.806;2023-12-20T07:30:44;7.10;99.90
62573;DHT22;48626;51.678;5.806;2023-12-20T07:33:09;7.10;99.90
62573;DHT22;48626;51.678;5.806;2023-12-20T07:35:35;7.20;99.90
62573;DHT22;48626;51.678;5.806;2023-12-20T07:38:00;7.10;99.90
62573;DHT22;48626;51.678;5.806;2023-12-20T07:40:27;7.10;99.90
62573;DHT22;48626;51.678;5.806;2023-12-20T07:42:53;7.10;99.90
62573;DHT22;48626;51.678;5.806;2023-12-20T07:45:18;7.10;99.90
62573;DHT22;48626;51.678;5.806;2023-12-20T07:47:44;7.10;99.90
62573;DHT22;48626;51.678;5.806;2023-12-20T07:50:09;7.10;99.90
62573;DHT22;48626;51.678;5.806;2023-12-20T07:52:35;7.10;99.90
62573;DHT22;48626;51.678;5.806;2023-12-20T07:55:01;7.10;99.90
62573;DHT22;48626;51.678;5.806;2023-12-20T07:57:30;7.10;99.90
62573;DHT22;48626;51.678;5.806;2023-12-20T07:59:55;7.10;99.90
62573;DHT22;48626;51.678;5.806;2023-12-20T08:02:21;7.20;99.90
62573;DHT22;48626;51.678;5.806;2023-12-20T08:04:47;7.10;99.90
62573;DHT22;48626;51.678;5.806;2023-12-20T08:07:12;7.10;99.90
62573;DHT22;48626;51.678;5.806;2023-12-20T08:09:38;7.10;99.90
62573;DHT22;48626;51.678;5.806;2023-12-20T08:12:03;7.10;99.90
62573;DHT22;48626;51.678;5.806;2023-12-20T08:14:29;7.20;99.90
62573;DHT22;48626;51.678;5.806;2023-12-20T08:16:54;7.20;99.90
62573;DHT22;48626;51.678;5.806;2023-12-20T08:19:20;7.20;99.90
62573;DHT22;48626;51.678;5.806;2023-12-20T08:21:45;7.20;99.90
62573;DHT22;48626;51.678;5.806;2023-12-20T08:24:11;7.20;99.90
62573;DHT22;48626;51.678;5.806;2023-12-20T08:26:36;7.10;99.90
62573;DHT22;48626;51.678;5.806;2023-12-20T08:29:02;7.20;99.90
62573;DHT22;48626;51.678;5.806;2023-12-20T08:31:27;7.20;99.90
62573;DHT22;48626;51.678;5.806;2023-12-20T08:33:53;7.20;99.90
62573;DHT22;48626;51.678;5.806;2023-12-20T08:36:19;7.20;99.90
62573;DHT22;48626;51.678;5.806;2023-12-20T08:38:46;7.20;99.90
62573;DHT22;48626;51.678;5.806;2023-12-20T08:41:12;7.20;99.90
62573;DHT22;48626;51.678;5.806;2023-12-20T08:43:38;7.30;99.90
62573;DHT22;48626;51.678;5.806;2023-12-20T08:46:05;7.20;99.90
62573;DHT22;48626;51.678;5.806;2023-12-20T08:48:31;7.30;99.90
62573;DHT22;48626;51.678;5.806;2023-12-20T08:50:56;7.30;99.90
62573;DHT22;48626;51.678;5.806;2023-12-20T08:53:22;7.40;99.90
62573;DHT22;48626;51.678;5.806;2023-12-20T08:55:48;7.40;99.90
62573;DHT22;48626;51.678;5.806;2023-12-20T08:58:13;7.40;99.90
62573;DHT22;48626;51.678;5.806;2023-12-20T09:00:39;7.40;99.90
62573;DHT22;48626;51.678;5.806;2023-12-20T09:03:05;7.40;99.90
62573;DHT22;48626;51.678;5.806;2023-12-20T09:05:30;7.40;99.90
62573;DHT22;48626;51.678;5.806;2023-12-20T09:07:56;7.40;99.90
62573;DHT22;48626;51.678;5.806;2023-12-20T09:10:21;7.50;99.90
62573;DHT22;48626;51.678;5.806;2023-12-20T09:12:48;7.50;99.90
62573;DHT22;48626;51.678;5.806;2023-12-20T09:15:13;7.50;99.90
62573;DHT22;48626;51.678;5.806;2023-12-20T09:17:39;7.50;99.90
62573;DHT22;48626;51.678;5.806;2023-12-20T09:20:05;7.50;99.90
62573;DHT22;48626;51.678;5.806;2023-12-20T09:22:33;7.50;99.90
62573;DHT22;48626;51.678;5.806;2023-12-20T09:24:59;7.50;99.90
62573;DHT22;48626;51.678;5.806;2023-12-20T09:27:24;7.60;99.90
62573;DHT22;48626;51.678;5.806;2023-12-20T09:29:50;7.60;99.90
62573;DHT22;48626;51.678;5.806;2023-12-20T09:32:15;7.60;99.90
62573;DHT22;48626;51.678;5.806;2023-12-20T09:34:41;7.50;99.90
62573;DHT22;48626;51.678;5.806;2023-12-20T09:37:07;7.60;99.90
62573;DHT22;48626;51.678;5.806;2023-12-20T09:39:33;7.60;99.90
62573;DHT22;48626;51.678;5.806;2023-12-20T09:44:27;7.70;99.90
62573;DHT22;48626;51.678;5.806;2023-12-20T09:46:53;7.80;99.90
62573;DHT22;48626;51.678;5.806;2023-12-20T09:49:19;7.70;99.90
62573;DHT22;48626;51.678;5.806;2023-12-20T09:51:52;7.70;99.90
62573;DHT22;48626;51.678;5.806;2023-12-20T09:54:18;7.70;99.90
62573;DHT22;48626;51.678;5.806;2023-12-20T09:56:44;7.70;99.90
62573;DHT22;48626;51.678;5.806;2023-12-20T09:59:09;7.70;99.90
62573;DHT22;48626;51.678;5.806;2023-12-20T10:01:35;7.80;99.90
62573;DHT22;48626;51.678;5.806;2023-12-20T10:04:03;7.70;99.90
62573;DHT22;48626;51.678;5.806;2023-12-20T10:06:32;7.70;99.90
62573;DHT22;48626;51.678;5.806;2023-12-20T10:08:57;7.80;99.90
62573;DHT22;48626;51.678;5.806;2023-12-20T10:11:23;7.80;99.90
62573;DHT22;48626;51.678;5.806;2023-12-20T10:13:49;7.80;99.90
62573;DHT22;48626;51.678;5.806;2023-12-20T10:16:15;7.80;99.90
62573;DHT22;48626;51.678;5.806;2023-12-20T10:18:40;7.90;99.90
62573;DHT22;48626;51.678;5.806;2023-12-20T10:21:06;7.90;99.90
62573;DHT22;48626;51.678;5.806;2023-12-20T10:23:32;8.00;99.90
62573;DHT22;48626;51.678;5.806;2023-12-20T10:25:58;8.00;99.90
62573;DHT22;48626;51.678;5.806;2023-12-20T10:28:24;8.00;99.90
62573;DHT22;48626;51.678;5.806;2023-12-20T10:30:56;8.00;99.90
62573;DHT22;48626;51.678;5.806;2023-12-20T10:33:24;8.00;99.90
62573;DHT22;48626;51.678;5.806;2023-12-20T10:35:51;8.00;99.90
62573;DHT22;48626;51.678;5.806;2023-12-20T10:38:17;8.00;99.90
62573;DHT22;48626;51.678;5.806;2023-12-20T10:40:42;8.00;99.90
62573;DHT22;48626;51.678;5.806;2023-12-20T10:43:10;8.00;99.90
62573;DHT22;48626;51.678;5.806;2023-12-20T10:45:35;8.00;99.90
62573;DHT22;48626;51.678;5.806;2023-12-20T10:48:01;8.10;99.90
62573;DHT22;48626;51.678;5.806;2023-12-20T10:50:27;8.10;99.90
62573;DHT22;48626;51.678;5.806;2023-12-20T10:52:54;8.10;99.90
62573;DHT22;48626;51.678;5.806;2023-12-20T10:55:24;8.10;99.90
62573;DHT22;48626;51.678;5.806;2023-12-20T10:58:06;8.10;99.90
62573;DHT22;48626;51.678;5.806;2023-12-20T11:00:32;8.20;99.90
62573;DHT22;48626;51.678;5.806;2023-12-20T11:03:00;8.10;99.90
62573;DHT22;48626;51.678;5.806;2023-12-20T11:08:01;8.20;99.90
62573;DHT22;48626;51.678;5.806;2023-12-20T11:10:31;8.20;99.90
62573;DHT22;48626;51.678;5.806;2023-12-20T11:15:22;8.30;99.90
62573;DHT22;48626;51.678;5.806;2023-12-20T11:17:54;8.40;99.90
62573;DHT22;48626;51.678;5.806;2023-12-20T11:20:21;8.40;99.90
62573;DHT22;48626;51.678;5.806;2023-12-20T11:22:53;8.40;99.90
62573;DHT22;48626;51.678;5.806;2023-12-20T11:25:20;8.50;99.90
62573;DHT22;48626;51.678;5.806;2023-12-20T11:28:06;8.50;99.90
62573;DHT22;48626;51.678;5.806;2023-12-20T11:30:40;8.50;99.90
62573;DHT22;48626;51.678;5.806;2023-12-20T11:33:07;8.60;99.90
62573;DHT22;48626;51.678;5.806;2023-12-20T11:35:33;8.60;99.90
62573;DHT22;48626;51.678;5.806;2023-12-20T11:38:00;8.60;99.90
62573;DHT22;48626;51.678;5.806;2023-12-20T11:40:26;8.60;99.90
62573;DHT22;48626;51.678;5.806;2023-12-20T11:42:52;8.60;99.90
62573;DHT22;48626;51.678;5.806;2023-12-20T11:45:20;8.60;99.90
62573;DHT22;48626;51.678;5.806;2023-12-20T11:47:47;8.60;99.90
62573;DHT22;48626;51.678;5.806;2023-12-20T11:50:15;8.60;99.90
62573;DHT22;48626;51.678;5.806;2023-12-20T11:52:40;8.60;99.90
62573;DHT22;48626;51.678;5.806;2023-12-20T11:55:06;8.60;99.90
62573;DHT22;48626;51.678;5.806;2023-12-20T11:57:32;8.60;99.90
62573;DHT22;48626;51.678;5.806;2023-12-20T11:59:57;8.60;99.90
62573;DHT22;48626;51.678;5.806;2023-12-20T12:02:23;8.60;99.90
62573;DHT22;48626;51.678;5.806;2023-12-20T12:04:49;8.60;99.90
62573;DHT22;48626;51.678;5.806;2023-12-20T12:07:16;8.60;99.90
62573;DHT22;48626;51.678;5.806;2023-12-20T12:09:42;8.60;99.90
62573;DHT22;48626;51.678;5.806;2023-12-20T12:12:08;8.60;99.90
62573;DHT22;48626;51.678;5.806;2023-12-20T12:14:33;8.60;99.90
62573;DHT22;48626;51.678;5.806;2023-12-20T12:17:00;8.60;99.90
62573;DHT22;48626;51.678;5.806;2023-12-20T12:19:26;8.60;99.90
62573;DHT22;48626;51.678;5.806;2023-12-20T12:22:13;8.70;99.90
62573;DHT22;48626;51.678;5.806;2023-12-20T12:24:45;8.70;99.90
62573;DHT22;48626;51.678;5.806;2023-12-20T12:27:11;8.70;99.90
62573;DHT22;48626;51.678;5.806;2023-12-20T12:29:37;8.70;99.90
62573;DHT22;48626;51.678;5.806;2023-12-20T12:32:06;8.80;99.90
62573;DHT22;48626;51.678;5.806;2023-12-20T12:34:32;8.70;99.90
62573;DHT22;48626;51.678;5.806;2023-12-20T12:36:58;8.80;99.90
62573;DHT22;48626;51.678;5.806;2023-12-20T12:39:23;8.90;99.90
62573;DHT22;48626;51.678;5.806;2023-12-20T12:41:52;8.90;99.90
62573;DHT22;48626;51.678;5.806;2023-12-20T12:44:17;8.90;99.90
62573;DHT22;48626;51.678;5.806;2023-12-20T12:46:44;8.90;99.90
62573;DHT22;48626;51.678;5.806;2023-12-20T12:49:09;8.80;99.90
62573;DHT22;48626;51.678;5.806;2023-12-20T12:51:35;8.90;99.90
62573;DHT22;48626;51.678;5.806;2023-12-20T12:54:00;8.90;99.90
62573;DHT22;48626;51.678;5.806;2023-12-20T12:56:26;8.90;99.90
62573;DHT22;48626;51.678;5.806;2023-12-20T12:58:51;8.90;99.90
62573;DHT22;48626;51.678;5.806;2023-12-20T13:01:17;8.80;99.90
62573;DHT22;48626;51.678;5.806;2023-12-20T13:03:43;8.90;99.90
62573;DHT22;48626;51.678;5.806;2023-12-20T13:06:08;8.80;99.90
62573;DHT22;48626;51.678;5.806;2023-12-20T13:08:34;8.70;99.90
62573;DHT22;48626;51.678;5.806;2023-12-20T13:10:59;8.80;99.90
62573;DHT22;48626;51.678;5.806;2023-12-20T13:13:26;8.80;99.90
62573;DHT22;48626;51.678;5.806;2023-12-20T13:15:52;8.80;99.90
62573;DHT22;48626;51.678;5.806;2023-12-20T13:18:20;8.90;99.90
62573;DHT22;48626;51.678;5.806;2023-12-20T13:20:46;8.90;99.90
62573;DHT22;48626;51.678;5.806;2023-12-20T13:23:11;8.90;99.90
62573;DHT22;48626;51.678;5.806;2023-12-20T13:25:37;8.90;99.90
62573;DHT22;48626;51.678;5.806;2023-12-20T13:28:02;8.90;99.90
62573;DHT22;48626;51.678;5.806;2023-12-20T13:30:29;8.90;99.90
62573;DHT22;48626;51.678;5.806;2023-12-20T13:32:54;8.90;99.90
62573;DHT22;48626;51.678;5.806;2023-12-20T13:35:20;8.90;99.90
62573;DHT22;48626;51.678;5.806;2023-12-20T13:37:46;8.90;99.90
62573;DHT22;48626;51.678;5.806;2023-12-20T13:40:11;8.90;99.90
62573;DHT22;48626;51.678;5.806;2023-12-20T13:42:38;8.90;99.90
62573;DHT22;48626;51.678;5.806;2023-12-20T13:45:03;8.90;99.90
62573;DHT22;48626;51.678;5.806;2023-12-20T13:47:30;8.90;99.90
62573;DHT22;48626;51.678;5.806;2023-12-20T13:49:56;9.00;99.90
62573;DHT22;48626;51.678;5.806;2023-12-20T13:52:21;9.00;99.90
62573;DHT22;48626;51.678;5.806;2023-12-20T13:54:47;9.00;99.90
62573;DHT22;48626;51.678;5.806;2023-12-20T13:57:13;9.00;99.90
62573;DHT22;48626;51.678;5.806;2023-12-20T13:59:38;9.00;99.90
62573;DHT22;48626;51.678;5.806;2023-12-20T14:02:04;9.00;99.90
62573;DHT22;48626;51.678;5.806;2023-12-20T14:04:29;9.00;99.90
62573;DHT22;48626;51.678;5.806;2023-12-20T14:06:56;8.90;99.90
62573;DHT22;48626;51.678;5.806;2023-12-20T14:09:21;8.90;99.90
62573;DHT22;48626;51.678;5.806;2023-12-20T14:11:47;8.90;99.90
62573;DHT22;48626;51.678;5.806;2023-12-20T14:14:13;8.90;99.90
62573;DHT22;48626;51.678;5.806;2023-12-20T14:16:38;8.90;99.90
62573;DHT22;48626;51.678;5.806;2023-12-20T14:19:04;8.90;99.90
62573;DHT22;48626;51.678;5.806;2023-12-20T14:21:30;9.00;99.90
62573;DHT22;48626;51.678;5.806;2023-12-20T14:23:56;9.00;99.90
62573;DHT22;48626;51.678;5.806;2023-12-20T14:26:21;9.00;99.90
62573;DHT22;48626;51.678;5.806;2023-12-20T14:28:47;9.00;99.90
62573;DHT22;48626;51.678;5.806;2023-12-20T14:31:12;8.90;99.90
62573;DHT22;48626;51.678;5.806;2023-12-20T14:33:38;8.90;99.90
62573;DHT22;48626;51.678;5.806;2023-12-20T14:36:04;8.90;99.90
62573;DHT22;48626;51.678;5.806;2023-12-20T14:38:30;8.90;99.90
62573;DHT22;48626;51.678;5.806;2023-12-20T14:40:56;8.90;99.90
62573;DHT22;48626;51.678;5.806;2023-12-20T14:43:22;9.00;99.90
62573;DHT22;48626;51.678;5.806;2023-12-20T14:45:47;9.00;99.90
62573;DHT22;48626;51.678;5.806;2023-12-20T14:48:13;9.00;99.90
62573;DHT22;48626;51.678;5.806;2023-12-20T14:50:38;9.00;99.90
62573;DHT22;48626;51.678;5.806;2023-12-20T14:53:06;9.00;99.90
62573;DHT22;48626;51.678;5.806;2023-12-20T14:55:32;8.90;99.90
62573;DHT22;48626;51.678;5.806;2023-12-20T14:57:59;8.90;99.90
62573;DHT22;48626;51.678;5.806;2023-12-20T15:00:25;8.90;99.90
62573;DHT22;48626;51.678;5.806;2023-12-20T15:02:50;8.90;99.90
62573;DHT22;48626;51.678;5.806;2023-12-20T15:05:16;8.90;99.90
62573;DHT22;48626;51.678;5.806;2023-12-20T15:07:43;8.90;99.90
62573;DHT22;48626;51.678;5.806;2023-12-20T15:10:08;8.90;99.90
62573;DHT22;48626;51.678;5.806;2023-12-20T15:12:34;8.90;99.90
62573;DHT22;48626;51.678;5.806;2023-12-20T15:15:00;8.90;99.90
62573;DHT22;48626;51.678;5.806;2023-12-20T15:17:25;8.90;99.90
62573;DHT22;48626;51.678;5.806;2023-12-20T15:19:52;8.90;99.90
62573;DHT22;48626;51.678;5.806;2023-12-20T15:22:17;8.90;99.90
62573;DHT22;48626;51.678;5.806;2023-12-20T15:24:43;8.90;99.90
62573;DHT22;48626;51.678;5.806;2023-12-20T15:27:11;8.90;99.90
62573;DHT22;48626;51.678;5.806;2023-12-20T15:29:36;8.90;99.90
62573;DHT22;48626;51.678;5.806;2023-12-20T15:32:02;8.90;99.90
62573;DHT22;48626;51.678;5.806;2023-12-20T15:34:29;8.90;99.90
62573;DHT22;48626;51.678;5.806;2023-12-20T15:36:54;8.80;99.90
62573;DHT22;48626;51.678;5.806;2023-12-20T15:39:20;8.80;99.90
62573;DHT22;48626;51.678;5.806;2023-12-20T15:41:46;8.80;99.90
62573;DHT22;48626;51.678;5.806;2023-12-20T15:44:12;8.80;99.90